Time;durP1;ratioP1;P1;durP2;ratioP2;P2;SDS_P1;SDS_P2;PMS_P1;PMS_P2;Temp;Humidity;BMP_temperature;BMP_pressure;BME280_temperature;BME280_humidity;BME280_pressure;Samples;Min_cycle;Max_cycle;Signal;HPM_P1;HPM_P2
2023/09/15 00:01:04;;;;;;;15.40;7.30;;;;;;;21.86;59.37;100352.13;127042;1092;102742;31
2023/09/15 00:03:37;;;;;;;14.90;6.87;;;;;;;21.84;60.65;100355.72;126516;1104;102042;-80
2023/09/15 00:06:06;;;;;;;13.53;6.77;;;;;;;21.83;60.15;100357.52;126541;1105;101997;-81
2023/09/15 00:08:46;;;;;;;15.50;7.40;;;;;;;21.80;60.72;100348.64;126975;1093;102128;31
2023/09/15 00:11:17;;;;;;;17.20;7.53;;;;;;;21.75;60.64;100345.15;126777;1093;102875;-83
2023/09/15 00:13:46;;;;;;;13.60;7.27;;;;;;;21.72;60.66;100351.41;127012;1092;102360;-79
2023/09/15 00:16:20;;;;;;;13.17;6.67;;;;;;;21.72;60.94;100351.41;126807;1093;103150;31
2023/09/15 00:21:51;;;;;;;16.73;6.80;;;;;;;21.68;61.16;100355.91;126583;1096;101608;-80
2023/09/15 00:24:20;;;;;;;12.37;6.80;;;;;;;21.68;61.19;100352.36;127071;1093;102220;-80
2023/09/15 00:29:40;;;;;;;14.97;7.27;;;;;;;21.66;60.70;100360.39;126147;1105;101712;-80
2023/09/15 00:35:28;;;;;;;14.50;7.03;;;;;;;21.66;61.63;100362.16;127082;1095;103075;31
2023/09/15 00:37:56;;;;;;;13.53;6.93;;;;;;;21.66;61.15;100360.39;126588;1096;119246;-80
2023/09/15 00:40:31;;;;;;;14.40;7.77;;;;;;;21.67;61.34;100366.61;126552;1096;103520;31
2023/09/15 00:43:00;;;;;;;13.83;7.27;;;;;;;21.67;61.55;100372.82;126840;1093;101561;-79
2023/09/15 00:45:29;;;;;;;14.67;7.07;;;;;;;21.68;61.59;100374.59;127063;1093;102716;-79
2023/09/15 01:03:10;;;;;;;13.13;7.17;;;;;;;21.71;61.07;100387.91;127234;1088;951066;31
2023/09/15 01:05:51;;;;;;;14.77;7.20;;;;;;;21.71;61.81;100387.04;128290;1090;106694;-79
2023/09/15 01:08:20;;;;;;;17.47;7.50;;;;;;;21.72;61.29;100380.77;128255;1092;101557;-81
2023/09/15 01:10:52;;;;;;;13.07;7.13;;;;;;;21.72;62.10;100381.69;128131;1089;102415;-80
2023/09/15 01:13:21;;;;;;;16.00;7.37;;;;;;;21.71;62.39;100390.58;127799;1090;102009;-79
2023/09/15 01:16:01;;;;;;;14.60;7.40;;;;;;;21.72;62.14;100399.47;127906;1089;101794;-80
2023/09/15 01:18:38;;;;;;;17.13;7.23;;;;;;;21.69;62.37;100397.73;127111;1092;102035;-81
2023/09/15 01:22:05;;;;;;;15.20;7.23;;;;;;;21.71;62.21;100397.72;127013;1089;101768;-80
2023/09/15 01:25:04;;;;;;;14.77;7.30;;;;;;;21.71;62.36;100398.59;127925;1088;101843;-80
2023/09/15 01:27:54;;;;;;;14.37;6.93;;;;;;;21.70;61.96;100403.95;128034;1087;104312;-81
2023/09/15 01:30:25;;;;;;;16.33;7.27;;;;;;;21.66;62.01;100419.14;126808;1089;104059;-80
2023/09/15 01:32:58;;;;;;;13.60;7.10;;;;;;;21.62;62.88;100412.05;127044;1089;101868;-80
2023/09/15 01:35:27;;;;;;;18.83;7.73;;;;;;;21.60;62.24;100415.63;127199;1089;101713;-80
2023/09/15 01:37:56;;;;;;;15.73;7.47;;;;;;;21.54;63.35;100413.93;127645;1090;101883;-81
2023/09/15 01:40:24;;;;;;;16.67;7.37;;;;;;;21.51;62.77;100419.30;127804;1089;101822;-81
2023/09/15 01:42:55;;;;;;;19.60;7.87;;;;;;;21.45;63.61;100414.87;127850;1089;101974;-80
2023/09/15 01:45:24;;;;;;;22.43;8.27;;;;;;;21.42;63.40;100414.90;127880;1088;101635;-79
2023/09/15 01:48:00;;;;;;;16.80;7.67;;;;;;;21.39;63.77;100414.05;128042;1088;102432;31
2023/09/15 01:53:04;;;;;;;17.40;7.80;;;;;;;21.27;64.56;100420.38;128073;1092;101656;-80
2023/09/15 01:55:33;;;;;;;15.17;7.90;;;;;;;21.21;64.84;100424.02;127595;1090;101928;-80
2023/09/15 01:58:02;;;;;;;15.67;7.37;;;;;;;21.18;65.50;100421.38;127679;1092;104079;-81
2023/09/15 02:00:34;;;;;;;17.83;8.73;;;;;;;21.17;65.68;100423.14;127695;1093;101674;-79
2023/09/15 02:03:04;;;;;;;17.20;8.13;;;;;;;21.17;65.81;100428.47;127644;1092;101852;-79
2023/09/15 02:05:34;;;;;;;15.03;7.90;;;;;;;21.16;65.17;100434.73;127461;1093;102194;-79
2023/09/15 02:08:04;;;;;;;17.57;7.90;;;;;;;21.19;64.99;100434.70;127773;1090;101752;-79
2023/09/15 02:10:32;;;;;;;15.27;7.70;;;;;;;21.23;65.18;100434.67;127145;1092;101822;-80
2023/09/15 02:13:01;;;;;;;16.83;7.83;;;;;;;21.30;65.65;100431.94;127935;1092;101693;-80
2023/09/15 02:15:32;;;;;;;16.37;7.70;;;;;;;21.35;65.43;100434.56;128482;1090;101822;-80
2023/09/15 02:18:01;;;;;;;15.00;7.90;;;;;;;21.39;65.54;100430.94;127356;1092;104200;-80
2023/09/15 02:20:30;;;;;;;16.90;7.93;;;;;;;21.40;66.01;100438.06;127096;1091;104248;-80
2023/09/15 02:23:03;;;;;;;19.67;8.30;;;;;;;21.40;65.72;100442.53;127814;1090;101792;-81
2023/09/15 02:25:32;;;;;;;13.95;7.40;;;;;;;21.36;65.68;100447.89;127876;1090;102047;-81
2023/09/15 02:28:02;;;;;;;15.57;8.17;;;;;;;21.36;65.73;100452.33;127208;1092;101811;-80
2023/09/15 02:30:30;;;;;;;16.90;7.77;;;;;;;21.33;65.35;100460.36;127046;1091;101721;-79
2023/09/15 02:32:59;;;;;;;17.40;8.53;;;;;;;21.29;66.12;100458.64;127814;1090;101774;-79
2023/09/15 02:35:28;;;;;;;16.50;7.90;;;;;;;21.26;66.11;100462.20;127513;1092;104242;-79
2023/09/15 02:37:57;;;;;;;15.07;7.83;;;;;;;21.25;66.54;100462.22;126375;1093;101890;-79
2023/09/15 02:40:25;;;;;;;14.57;8.07;;;;;;;21.21;66.16;100453.37;126991;1091;101801;-80
2023/09/15 02:42:54;;;;;;;15.57;8.00;;;;;;;21.17;66.22;100457.82;126841;1090;104261;-79
2023/09/15 02:45:24;;;;;;;16.07;7.53;;;;;;;21.15;66.43;100459.62;127298;1091;101820;-80
2023/09/15 02:47:52;;;;;;;19.03;8.27;;;;;;;21.12;66.00;100461.45;126190;1093;102300;-80
2023/09/15 02:50:21;;;;;;;17.17;7.87;;;;;;;21.10;66.61;100466.80;126193;1092;102372;-80
2023/09/15 02:52:50;;;;;;;16.17;8.33;;;;;;;21.10;66.66;100476.56;126268;1091;104168;-80
2023/09/15 02:55:19;;;;;;;16.07;8.00;;;;;;;21.10;66.28;100472.13;126206;1092;104271;-80
2023/09/15 02:57:51;;;;;;;16.30;8.30;;;;;;;21.06;66.64;100478.38;126133;1093;102143;-79
2023/09/15 03:00:20;;;;;;;17.53;8.57;;;;;;;21.02;67.11;100476.66;126213;1092;102070;-79
2023/09/15 03:02:49;;;;;;;16.00;8.37;;;;;;;20.96;67.12;100474.91;126210;1093;101880;-80
2023/09/15 03:05:20;;;;;;;18.33;8.33;;;;;;;20.91;68.09;100470.48;126287;1093;102014;-80
2023/09/15 03:07:49;;;;;;;15.83;8.50;;;;;;;20.87;67.39;100477.64;126206;1092;102076;-80
2023/09/15 03:10:17;;;;;;;17.90;9.00;;;;;;;20.82;68.61;100472.34;126235;1092;101819;-79
2023/09/15 03:12:46;;;;;;;18.43;9.63;;;;;;;20.81;68.57;100481.22;126180;1093;101921;-80
2023/09/15 03:15:16;;;;;;;19.57;9.67;;;;;;;20.82;67.73;100477.67;126281;1093;104207;-80
2023/09/15 03:17:44;;;;;;;18.17;9.17;;;;;;;20.83;67.91;100486.55;126271;1092;104207;-80
2023/09/15 03:20:15;;;;;;;16.20;8.60;;;;;;;20.81;69.15;100491.01;126386;1090;104669;-80
2023/09/15 03:22:46;;;;;;;19.27;8.97;;;;;;;20.81;68.31;100486.55;126395;1093;104226;-80
2023/09/15 03:25:17;;;;;;;19.93;8.87;;;;;;;20.78;68.20;100491.91;127030;1093;101988;-81
2023/09/15 03:27:46;;;;;;;17.70;9.10;;;;;;;20.78;68.02;100493.70;126230;1092;101896;-81
2023/09/15 03:30:14;;;;;;;16.93;8.90;;;;;;;20.77;67.96;100492.82;127214;1090;104327;-81
2023/09/15 03:32:43;;;;;;;18.27;9.10;;;;;;;20.76;68.10;100493.70;126183;1093;104229;-83
2023/09/15 03:35:12;;;;;;;17.23;8.73;;;;;;;20.72;69.41;100499.06;126222;1093;104229;-83
2023/09/15 03:37:41;;;;;;;17.53;8.87;;;;;;;20.71;68.51;100499.95;127194;1092;101861;-83
2023/09/15 03:40:11;;;;;;;18.00;9.23;;;;;;;20.69;69.07;100494.63;126300;1093;104213;-84
2023/09/15 03:42:41;;;;;;;16.97;9.20;;;;;;;20.69;68.54;100501.75;127110;1089;102061;-82
2023/09/15 03:45:11;;;;;;;18.87;8.77;;;;;;;20.65;69.24;100501.77;127571;1088;104172;-82
2023/09/15 03:47:40;;;;;;;19.73;9.53;;;;;;;20.64;70.05;100504.41;126727;1089;102759;-81
2023/09/15 03:50:10;;;;;;;18.43;9.37;;;;;;;20.63;69.21;100515.95;127607;1089;108033;-81
2023/09/15 03:52:38;;;;;;;18.13;9.40;;;;;;;20.64;69.15;100515.07;126779;1089;101865;-84
2023/09/15 03:55:09;;;;;;;17.97;9.80;;;;;;;20.65;70.16;100519.55;126772;1089;102203;-84
2023/09/15 03:57:37;;;;;;;18.97;9.47;;;;;;;20.64;70.25;100525.73;126707;1089;104181;-83
2023/09/15 04:00:17;;;;;;;23.30;10.23;;;;;;;20.62;71.20;100527.53;126622;1090;104576;-84
2023/09/15 04:02:46;;;;;;;20.73;10.07;;;;;;;20.58;70.28;100536.43;126753;1089;102011;-83
2023/09/15 04:05:15;;;;;;;18.93;10.60;;;;;;;20.55;71.21;100531.11;126788;1089;102032;-84
2023/09/15 04:07:44;;;;;;;18.80;10.50;;;;;;;20.52;71.27;100539.13;126689;1088;101999;-83
2023/09/15 04:10:13;;;;;;;21.57;10.57;;;;;;;20.52;70.63;100537.36;126623;1089;101864;-83
2023/09/15 04:12:42;;;;;;;19.70;9.97;;;;;;;20.52;71.11;100541.78;126884;1089;101768;-84
2023/09/15 04:15:11;;;;;;;19.27;10.50;;;;;;;20.49;71.55;100545.37;126697;1089;102201;-84
2023/09/15 04:17:40;;;;;;;17.33;10.40;;;;;;;20.48;71.47;100540.92;126588;1089;101835;-82
2023/09/15 04:20:10;;;;;;;17.77;9.90;;;;;;;20.46;72.43;100551.59;126470;1089;104733;-84
2023/09/15 04:22:40;;;;;;;20.80;10.40;;;;;;;20.46;71.63;100556.05;126541;1089;104034;-81
2023/09/15 04:25:11;;;;;;;20.93;10.40;;;;;;;20.45;71.36;100560.47;127417;1089;101900;-81
2023/09/15 04:27:41;;;;;;;20.27;10.80;;;;;;;20.44;72.33;100553.39;126665;1089;102166;-83
2023/09/15 04:30:11;;;;;;;18.13;9.90;;;;;;;20.44;71.81;100557.81;126649;1089;102104;-82
2023/09/15 04:32:46;;;;;;;21.57;10.77;;;;;;;20.43;72.10;100559.59;126659;1089;102039;-83
2023/09/15 04:35:19;;;;;;;20.23;10.37;;;;;;;20.46;71.55;100562.25;126550;1089;104178;-83
2023/09/15 04:37:48;;;;;;;20.80;10.17;;;;;;;20.47;71.96;100557.80;127669;1088;101887;-85
2023/09/15 04:40:17;;;;;;;23.57;10.97;;;;;;;20.50;72.20;100564.91;126504;1089;102031;-81
2023/09/15 04:42:46;;;;;;;23.73;11.03;;;;;;;20.53;72.92;100559.56;126548;1089;104736;-80
2023/09/15 04:45:15;;;;;;;23.80;11.13;;;;;;;20.54;72.09;100564.02;126366;1089;104197;-79
2023/09/15 04:47:45;;;;;;;20.35;10.40;;;;;;;20.54;72.73;100566.67;126413;1089;104242;-77
2023/09/15 04:50:19;;;;;;;20.90;10.13;;;;;;;20.56;72.86;100570.21;126415;1089;104162;-77
2023/09/15 04:52:48;;;;;;;23.37;10.87;;;;;;;20.54;73.55;100578.22;126564;1089;104037;-77
2023/09/15 04:55:19;;;;;;;21.13;10.87;;;;;;;20.52;74.13;100585.34;126487;1088;104287;-77
2023/09/15 04:57:48;;;;;;;21.90;11.27;;;;;;;20.49;73.29;100588.02;126342;1089;104215;-81
2023/09/15 05:00:25;;;;;;;23.37;11.13;;;;;;;20.47;74.17;100588.02;127351;1089;102255;-80
2023/09/15 05:02:57;;;;;;;23.27;10.73;;;;;;;20.45;74.86;100597.78;127692;1089;104053;-80
2023/09/15 05:05:26;;;;;;;34.67;12.40;;;;;;;20.45;74.88;100599.57;127617;1088;101882;-77
2023/09/15 05:07:56;;;;;;;29.20;12.47;;;;;;;20.46;74.24;100602.23;127220;1089;104238;-76
2023/09/15 05:10:28;;;;;;;23.73;11.63;;;;;;;20.49;74.13;100601.34;126567;1089;103839;-79
2023/09/15 05:13:17;;;;;;;32.77;12.90;;;;;;;20.52;73.73;100601.34;127350;1089;104203;-79
2023/09/15 05:15:45;;;;;;;34.53;13.13;;;;;;;20.55;74.95;100606.63;126275;1089;104229;-77
2023/09/15 05:18:21;;;;;;;30.53;11.90;;;;;;;20.58;74.77;100614.61;127220;1089;101820;-80
2023/09/15 05:21:07;;;;;;;27.90;12.17;;;;;;;20.57;74.68;100603.95;126181;1089;101899;-78
2023/09/15 05:23:41;;;;;;;31.77;12.43;;;;;;;20.57;75.89;100609.28;126369;1089;104194;-79
2023/09/15 05:26:13;;;;;;;25.77;12.80;;;;;;;20.60;75.15;100614.61;126398;1089;104232;-77
2023/09/15 05:28:48;;;;;;;29.20;12.80;;;;;;;20.62;75.94;100612.84;126223;1090;104189;-79
2023/09/15 05:31:26;;;;;;;27.75;11.80;;;;;;;20.64;74.75;100616.37;127130;1089;104324;-80
2023/09/15 05:34:00;;;;;;;30.03;13.30;;;;;;;20.65;75.24;100618.20;127555;1089;101921;-77
2023/09/15 05:36:29;;;;;;;28.77;13.17;;;;;;;20.64;76.36;100617.28;125982;1090;101918;-76
2023/09/15 05:39:27;;;;;;;28.83;12.93;;;;;;;20.63;75.38;100617.26;126094;1089;104207;-77
2023/09/15 05:42:03;;;;;;;32.27;13.87;;;;;;;20.66;75.52;100627.95;127121;1089;104251;-77
2023/09/15 05:44:41;;;;;;;31.10;13.27;;;;;;;20.69;75.56;100630.60;127029;1089;102061;-78
2023/09/15 05:47:14;;;;;;;32.37;14.10;;;;;;;20.73;76.20;100635.04;127501;1088;104229;-81
2023/09/15 05:49:45;;;;;;;32.37;14.60;;;;;;;20.75;75.97;100629.70;127131;1089;104175;-78
2023/09/15 05:52:18;;;;;;;35.93;14.73;;;;;;;20.78;76.77;100635.90;126880;1089;104165;-80
2023/09/15 05:55:04;;;;;;;39.17;14.93;;;;;;;20.85;76.15;100635.88;127995;1089;104267;-78
2023/09/15 05:57:36;;;;;;;30.77;14.33;;;;;;;20.96;77.12;100636.73;127755;1089;104260;-81
2023/09/15 06:00:10;;;;;;;;;;;;;;;21.05;76.80;100639.36;127751;1089;104206;-81
2023/09/15 06:02:55;;;;;;;34.70;14.53;;;;;;;21.19;76.11;100639.25;127624;1089;117838;-79
2023/09/15 06:05:41;;;;;;;;;;;;;;;;;;;;;
2023/09/15 06:08:53;;;;;;;35.10;14.37;;;;;;;21.47;76.50;100642.66;127556;1089;101774;-81
2023/09/15 06:14:51;;;;;;;25.30;14.73;;;;;;;21.81;75.46;100639.73;128175;1089;104065;-82
2023/09/15 06:17:46;;;;;;;;;;;;;;;;;;;;;
2023/09/15 06:20:22;;;;;;;26.27;15.10;;;;;;;22.03;75.86;100644.89;127232;1089;104414;-81
2023/09/15 06:23:01;;;;;;;;;;;;;;;22.19;75.92;100646.53;127965;1089;101784;-81
2023/09/15 06:25:39;;;;;;;28.47;17.30;;;;;;;22.35;76.21;100641.94;127721;1089;101802;-82
2023/09/15 06:28:09;;;;;;;28.10;17.90;;;;;;;22.50;75.88;100646.25;127392;1090;104325;-78
2023/09/15 06:31:10;;;;;;;26.67;16.97;;;;;;;22.69;75.47;100656.70;127122;1089;104209;-83
2023/09/15 06:33:49;;;;;;;24.50;16.57;;;;;;;22.86;74.61;100659.17;127220;1089;107022;-81
2023/09/15 06:36:55;;;;;;;26.27;17.47;;;;;;;23.00;74.60;100657.23;127206;1089;101907;-78
2023/09/15 06:39:44;;;;;;;26.63;17.23;;;;;;;23.09;74.04;100658.92;127274;1089;104153;-79
2023/09/15 06:42:39;;;;;;;26.27;16.77;;;;;;;23.13;73.66;100658.86;128392;1089;101751;-82
2023/09/15 06:45:11;;;;;;;27.57;16.50;;;;;;;23.17;73.81;100667.75;127690;1089;101902;-80
2023/09/15 06:47:51;;;;;;;24.60;15.83;;;;;;;23.20;73.28;100664.13;127706;1089;104326;-79
2023/09/15 06:50:28;;;;;;;26.27;15.87;;;;;;;23.17;72.76;100665.08;127722;1088;101794;-85
2023/09/15 06:53:08;;;;;;;24.43;16.73;;;;;;;23.18;72.84;100674.85;128347;1087;102073;-82
2023/09/15 06:55:49;;;;;;;25.03;15.93;;;;;;;23.21;72.03;100676.61;127648;1089;104170;-77
2023/09/15 06:58:39;;;;;;;24.63;17.17;;;;;;;23.19;72.40;100673.05;126700;1089;104290;-78
2023/09/15 07:01:34;;;;;;;23.50;15.98;;;;;;;23.27;72.17;100680.08;127072;1089;104230;-83
2023/09/15 07:04:07;;;;;;;24.92;15.30;;;;;;;23.35;71.83;100689.81;127881;1089;101586;-79
2023/09/15 07:06:36;;;;;;;23.63;15.73;;;;;;;23.45;72.11;100680.72;127504;1088;102058;-82
2023/09/15 07:09:08;;;;;;;25.30;15.97;;;;;;;23.59;72.04;100691.23;127355;1089;104309;-83
2023/09/15 07:11:41;;;;;;;24.83;16.47;;;;;;;23.75;71.62;100686.52;128181;1089;102454;-80
2023/09/15 07:14:12;;;;;;;26.87;16.40;;;;;;;23.94;71.43;100688.03;127911;1088;101935;-81
2023/09/15 07:16:44;;;;;;;25.93;16.47;;;;;;;24.10;71.07;100683.29;127436;1089;101762;-83
2023/09/15 07:19:13;;;;;;;25.90;16.63;;;;;;;24.26;70.09;100677.66;127638;1089;101848;-81
2023/09/15 07:21:44;;;;;;;23.45;15.45;;;;;;;24.38;69.69;100678.31;127156;1089;104169;-78
2023/09/15 07:24:13;;;;;;;24.17;16.50;;;;;;;24.37;69.37;100673.88;126569;1089;104235;-81
2023/09/15 07:26:45;;;;;;;25.40;15.73;;;;;;;24.33;69.27;100669.48;127569;1088;102292;-78
2023/09/15 07:29:14;;;;;;;25.57;16.80;;;;;;;24.27;68.61;100676.76;127486;1088;104248;-82
2023/09/15 07:31:46;;;;;;;25.87;15.27;;;;;;;24.25;68.62;100676.78;126980;1089;102035;-81
2023/09/15 07:34:28;;;;;;;23.20;15.63;;;;;;;24.15;67.95;100680.53;127668;1088;101893;-79
2023/09/15 07:37:05;;;;;;;24.40;15.97;;;;;;;24.12;67.85;100691.30;127651;1088;101851;-78
2023/09/15 07:39:43;;;;;;;24.43;16.13;;;;;;;24.09;67.78;100692.27;127602;1089;101964;-81
2023/09/15 07:42:24;;;;;;;25.10;15.37;;;;;;;24.10;67.98;100690.45;128185;1089;101875;-81
2023/09/15 07:44:53;;;;;;;22.10;15.23;;;;;;;24.05;68.09;100687.85;127326;1089;104167;-78
2023/09/15 07:47:23;;;;;;;25.10;17.70;;;;;;;24.03;67.69;100693.23;126320;1089;101801;-78
2023/09/15 07:49:52;;;;;;;24.33;16.57;;;;;;;23.99;68.00;100688.83;127357;1089;104290;-80
2023/09/15 07:52:26;;;;;;;25.07;16.67;;;;;;;23.99;68.16;100691.51;127647;1089;104158;-79
2023/09/15 07:54:55;;;;;;;25.03;16.53;;;;;;;23.96;67.77;100693.37;127068;1089;104280;-76
2023/09/15 07:57:32;;;;;;;25.30;16.60;;;;;;;23.90;67.83;100691.66;126942;1089;104191;-80
2023/09/15 08:00:12;;;;;;;23.53;16.43;;;;;;;23.88;67.89;100693.49;128157;1089;101680;-80
2023/09/15 08:03:08;;;;;;;25.70;16.70;;;;;;;23.86;68.19;100695.33;126985;1090;104216;-78
2023/09/15 08:05:52;;;;;;;28.00;17.10;;;;;;;23.84;67.82;100695.34;128116;1088;107824;-84
2023/09/15 08:08:37;;;;;;;25.73;17.47;;;;;;;23.83;67.97;100695.34;127171;1086;101975;-77
2023/09/15 08:11:06;;;;;;;26.17;17.87;;;;;;;23.79;68.04;100707.00;128055;1085;101913;-84
2023/09/15 08:13:45;;;;;;;27.27;18.00;;;;;;;23.78;68.06;100706.12;127401;1085;101793;-79
2023/09/15 08:16:27;;;;;;;28.07;18.23;;;;;;;23.79;68.18;100715.91;127374;1086;118112;-83
2023/09/15 08:19:04;;;;;;;24.37;16.63;;;;;;;23.82;67.97;100710.51;127960;1086;101742;-79
2023/09/15 08:21:33;;;;;;;26.23;17.97;;;;;;;23.76;68.10;100712.41;127516;1086;104180;-81
2023/09/15 08:24:06;;;;;;;25.00;17.37;;;;;;;23.70;67.93;100716.09;127822;1086;101856;-80
2023/09/15 08:26:41;;;;;;;25.90;17.47;;;;;;;23.65;67.97;100713.47;128472;1085;102538;-82
2023/09/15 08:29:28;;;;;;;27.50;18.40;;;;;;;23.66;68.25;100714.34;128565;1085;103473;-81
2023/09/15 08:32:00;;;;;;;24.90;16.90;;;;;;;23.69;67.98;100715.18;126798;1086;104309;-80
2023/09/15 08:34:33;;;;;;;26.20;17.07;;;;;;;23.69;68.28;100709.82;127859;1085;104210;-81
2023/09/15 08:37:04;;;;;;;24.77;16.77;;;;;;;23.71;68.19;100711.60;127217;1086;104258;-79
2023/09/15 08:39:36;;;;;;;24.37;17.33;;;;;;;23.71;68.05;100719.64;128374;1085;104184;-79
2023/09/15 08:42:09;;;;;;;27.10;16.80;;;;;;;23.72;68.01;100721.39;127761;1085;102334;-76
2023/09/15 08:44:43;;;;;;;26.37;17.20;;;;;;;23.71;67.87;100725.88;126426;1086;104330;-77
2023/09/15 08:47:15;;;;;;;26.10;17.27;;;;;;;23.64;68.03;100717.05;126322;1086;104209;-77
2023/09/15 08:49:51;;;;;;;28.53;17.20;;;;;;;23.73;67.89;100728.53;126275;1086;101989;-79
2023/09/15 08:52:22;;;;;;;24.40;17.40;;;;;;;23.75;68.07;100730.28;126463;1086;104268;-77
2023/09/15 08:54:58;;;;;;;25.10;17.13;;;;;;;23.79;67.96;100731.98;126836;1086;104152;-81
2023/09/15 08:57:30;;;;;;;24.73;15.77;;;;;;;23.86;67.97;100732.84;127279;1086;104194;-79
2023/09/15 09:00:00;;;;;;;26.27;16.10;;;;;;;23.89;67.95;100738.14;126524;1085;101983;-79
2023/09/15 09:02:32;;;;;;;26.47;16.73;;;;;;;23.92;68.10;100737.19;126516;1086;104155;-76
2023/09/15 09:05:04;;;;;;;24.73;16.20;;;;;;;23.94;67.86;100738.95;127234;1085;104178;-78
2023/09/15 09:07:36;;;;;;;27.73;16.83;;;;;;;24.00;67.99;100749.58;126799;1086;104277;-79
2023/09/15 09:10:06;;;;;;;26.00;16.45;;;;;;;24.04;68.36;100743.27;127843;1085;104260;-80
2023/09/15 09:12:41;;;;;;;24.10;15.90;;;;;;;24.04;67.62;100748.63;127792;1085;102054;-76
2023/09/15 09:15:13;;;;;;;24.27;15.80;;;;;;;23.97;67.68;100748.75;126723;1086;102309;-79
2023/09/15 09:17:43;;;;;;;24.75;15.72;;;;;;;23.98;67.68;100754.08;127652;1085;101945;-77
2023/09/15 09:20:27;;;;;;;23.40;15.80;;;;;;;23.97;67.70;100749.63;126709;1086;102320;-78
2023/09/15 09:23:15;;;;;;;24.70;16.87;;;;;;;23.97;67.71;100754.98;126505;1086;104241;-77
2023/09/15 09:26:13;;;;;;;24.60;16.63;;;;;;;23.95;67.33;100751.45;127916;1085;101819;-78
2023/09/15 09:28:58;;;;;;;25.53;16.90;;;;;;;23.98;67.82;100751.41;126874;1086;101841;-78
2023/09/15 09:31:32;;;;;;;24.63;16.53;;;;;;;23.98;68.08;100751.41;126333;1086;104210;-76
2023/09/15 09:34:06;;;;;;;22.90;16.57;;;;;;;23.95;68.92;100761.27;127558;1085;101888;-76
2023/09/15 09:36:46;;;;;;;24.10;16.17;;;;;;;23.88;69.43;100755.13;127111;1086;102004;-79
2023/09/15 09:39:29;;;;;;;23.47;16.73;;;;;;;23.82;69.27;100758.73;126591;1086;104171;-74
2023/09/15 09:42:02;;;;;;;25.83;16.77;;;;;;;23.75;69.39;100751.72;126068;1090;104159;-76
2023/09/15 09:44:42;;;;;;;26.40;17.37;;;;;;;23.77;69.55;100759.73;125994;1086;104183;-77
2023/09/15 09:47:18;;;;;;;22.97;16.37;;;;;;;23.85;69.45;100757.84;127552;1088;104444;-76
2023/09/15 09:50:09;;;;;;;;;;;;;;;23.86;69.41;100760.50;128198;1085;102049;-76
2023/09/15 09:52:56;;;;;;;24.57;16.60;;;;;;;23.89;69.54;100754.22;126501;1086;104127;-76
2023/09/15 09:55:44;;;;;;;25.90;16.70;;;;;;;23.92;69.18;100751.50;126188;1086;104637;-78
2023/09/15 09:58:20;;;;;;;24.83;15.83;;;;;;;24.03;69.05;100751.33;127838;1085;101905;-79
2023/09/15 10:00:52;;;;;;;;;;;;;;;24.09;69.10;100756.59;127258;1086;104218;-79
2023/09/15 10:03:33;;;;;;;24.30;15.57;;;;;;;24.17;69.23;100756.47;126264;1086;104359;-80
2023/09/15 10:06:03;;;;;;;26.47;15.50;;;;;;;24.19;68.96;100754.64;126513;1086;102005;-76
2023/09/15 10:08:33;;;;;;;23.90;15.23;;;;;;;24.25;68.65;100753.63;127619;1086;110313;-78
2023/09/15 10:11:09;;;;;;;22.83;16.07;;;;;;;24.23;68.47;100751.88;126304;1086;104261;-77
2023/09/15 10:13:40;;;;;;;23.67;15.63;;;;;;;24.33;67.55;100763.33;127607;1085;104152;-76
2023/09/15 10:16:12;;;;;;;23.43;16.10;;;;;;;24.44;67.64;100759.59;126497;1086;104222;-78
2023/09/15 10:18:54;;;;;;;22.37;15.47;;;;;;;24.53;67.72;100756.75;128825;1085;101681;-81
2023/09/15 10:21:38;;;;;;;22.70;15.97;;;;;;;24.60;67.39;100763.78;128469;1085;104066;-82
2023/09/15 10:24:15;;;;;;;21.75;15.35;;;;;;;24.67;66.70;100764.58;127610;1086;101862;-81
2023/09/15 10:26:55;;;;;;;22.33;14.97;;;;;;;24.68;66.36;100769.91;127967;1085;102269;-78
2023/09/15 10:29:34;;;;;;;23.70;14.97;;;;;;;24.70;66.21;100767.20;126967;1086;107023;-79
2023/09/15 10:32:36;;;;;;;;;;;;;;;;;;;;;
2023/09/15 10:35:33;;;;;;;24.30;16.43;;;;;;;24.78;65.64;100753.61;127882;1086;102272;-77
2023/09/15 10:38:06;;;;;;;22.60;15.60;;;;;;;24.82;65.60;100748.16;126567;1087;102348;-78
2023/09/15 10:40:56;;;;;;;23.60;16.13;;;;;;;24.90;65.34;100745.33;127014;1086;104241;-81
2023/09/15 10:43:54;;;;;;;24.37;16.17;;;;;;;24.91;64.17;100749.79;127678;1085;104162;-76
2023/09/15 10:46:57;;;;;;;25.27;16.10;;;;;;;24.97;64.54;100746.98;127872;1085;104188;-80
2023/09/15 10:49:28;;;;;;;23.70;16.30;;;;;;;25.05;64.33;100742.34;127902;1086;104180;-79
2023/09/15 10:52:02;;;;;;;23.67;16.73;;;;;;;25.15;64.06;100739.47;126373;1089;102523;-77
2023/09/15 10:54:42;;;;;;;27.23;17.53;;;;;;;25.30;63.47;100734.68;126277;1086;104236;-77
2023/09/15 10:57:14;;;;;;;25.43;18.37;;;;;;;25.36;63.06;100739.05;125971;1086;102111;-76
2023/09/15 10:59:49;;;;;;;24.40;17.70;;;;;;;25.42;62.83;100728.16;126567;1086;104271;-79
2023/09/15 11:02:22;;;;;;;24.43;17.40;;;;;;;25.47;62.61;100736.13;126749;1086;101975;-80
2023/09/15 11:05:01;;;;;;;25.50;17.25;;;;;;;25.57;62.29;100731.42;127056;1086;104189;-81
2023/09/15 11:07:34;;;;;;;24.27;17.10;;;;;;;25.68;62.25;100732.08;127105;1086;104219;-77
2023/09/15 11:10:10;;;;;;;23.07;16.20;;;;;;;25.74;61.82;100729.25;126512;1086;102445;-78
2023/09/15 11:12:42;;;;;;;24.10;16.67;;;;;;;25.77;61.53;100723.80;127340;1086;101915;-78
2023/09/15 11:15:17;;;;;;;24.00;15.70;;;;;;;25.83;60.76;100734.38;126157;1086;103374;-77
2023/09/15 11:17:46;;;;;;;23.73;15.60;;;;;;;25.82;60.64;100732.63;127182;1086;104156;-79
2023/09/15 11:20:17;;;;;;;22.70;16.07;;;;;;;25.91;60.62;100728.81;126736;1086;104252;-79
2023/09/15 11:23:01;;;;;;;21.60;15.03;;;;;;;26.03;60.26;100738.44;126467;1086;104309;-83
2023/09/15 11:25:32;;;;;;;22.03;14.17;;;;;;;26.14;59.31;100738.17;126898;1086;104162;-78
2023/09/15 11:28:18;;;;;;;21.65;15.15;;;;;;;26.15;59.21;100731.87;126647;1086;104149;-72
2023/09/15 11:30:52;;;;;;;21.17;14.63;;;;;;;26.20;58.78;100743.39;126551;1086;101886;-75
2023/09/15 11:33:23;;;;;;;23.07;14.80;;;;;;;26.23;59.07;100737.06;126104;1086;101896;-80
2023/09/15 11:35:54;;;;;;;21.85;14.30;;;;;;;26.25;58.92;100741.46;126356;1086;101955;-78
2023/09/15 11:38:26;;;;;;;21.00;13.90;;;;;;;26.34;58.23;100735.84;126327;1086;102079;-75
2023/09/15 11:40:55;;;;;;;21.13;14.30;;;;;;;26.46;58.32;100736.44;126721;1086;104155;-78
2023/09/15 11:43:26;;;;;;;21.27;13.67;;;;;;;26.56;58.04;100735.28;127570;1085;101861;-74
2023/09/15 11:45:59;;;;;;;20.77;14.37;;;;;;;26.59;57.76;100737.89;126183;1089;103509;-74
2023/09/15 11:48:40;;;;;;;20.33;14.03;;;;;;;26.58;56.73;100737.93;126547;1086;104108;-77
2023/09/15 11:51:13;;;;;;;21.03;13.70;;;;;;;26.53;57.29;100743.44;125846;1086;104210;-76
2023/09/15 11:53:53;;;;;;;22.50;13.63;;;;;;;26.47;56.29;100748.98;126018;1086;104213;-77
2023/09/15 11:56:29;;;;;;;22.30;13.57;;;;;;;26.47;56.85;100736.39;126165;1086;104226;-79
2023/09/15 11:59:06;;;;;;;21.63;14.63;;;;;;;26.55;56.69;100749.65;127213;1086;101803;-80
2023/09/15 12:01:58;;;;;;;;;;;;;;;;;;;;;
2023/09/15 12:04:33;;;;;;;22.27;13.67;;;;;;;26.60;56.24;100738.77;128084;1085;101790;-79
2023/09/15 12:07:05;;;;;;;22.20;14.10;;;;;;;26.63;56.24;100744.97;127236;1086;104234;-81